Time;durP1;ratioP1;P1;durP2;ratioP2;P2;SDS_P1;SDS_P2;PMS_P1;PMS_P2;Temp;Humidity;BMP_temperature;BMP_pressure;BME280_temperature;BME280_humidity;BME280_pressure;Samples;Min_cycle;Max_cycle;Signal;HPM_P1;HPM_P2
2023/06/13 00:01:13;;;;;;;4.20;3.80;;;;;;;14.27;74.11;97785.72;5091969;28;20218;-76
2023/06/13 00:03:40;;;;;;;4.30;3.83;;;;;;;14.19;74.63;97790.91;5092592;28;20215;-76
2023/06/13 00:06:07;;;;;;;4.37;3.97;;;;;;;14.16;74.09;97783.16;5092350;28;20223;-76
2023/06/13 00:08:34;;;;;;;4.93;3.97;;;;;;;14.14;74.01;97785.97;5092624;28;20214;-76
2023/06/13 00:11:01;;;;;;;3.93;3.53;;;;;;;14.10;74.01;97783.69;5091473;28;20645;-76
2023/06/13 00:13:28;;;;;;;4.10;3.60;;;;;;;14.06;73.83;97782.31;5092308;28;20203;-76
2023/06/13 00:15:58;;;;;;;4.07;3.67;;;;;;;14.01;74.37;97779.22;5092120;28;20317;-76
2023/06/13 00:18:25;;;;;;;5.47;3.80;;;;;;;13.96;74.44;97786.75;5092435;28;20267;-76
2023/06/13 00:20:54;;;;;;;4.17;3.77;;;;;;;13.91;74.43;97781.84;5091647;28;20214;-76
2023/06/13 00:23:21;;;;;;;6.03;3.80;;;;;;;13.93;74.57;97773.75;5092310;28;20298;-77
2023/06/13 00:25:48;;;;;;;4.27;3.83;;;;;;;13.94;75.12;97780.72;5092028;28;20272;-76
2023/06/13 00:28:15;;;;;;;3.70;3.30;;;;;;;13.97;74.91;97775.13;5092153;28;20569;-76
2023/06/13 00:30:41;;;;;;;4.57;3.83;;;;;;;14.01;74.54;97779.22;5091273;28;20611;-76
2023/06/13 00:33:10;;;;;;;3.70;3.23;;;;;;;14.03;73.82;97767.47;5092049;28;20695;-76
2023/06/13 00:35:36;;;;;;;4.03;3.63;;;;;;;14.07;73.26;97770.69;5091877;28;20249;-76
2023/06/13 00:38:07;;;;;;;4.33;3.67;;;;;;;14.11;72.77;97769.47;5092105;28;20223;-76
2023/06/13 00:40:33;;;;;;;3.57;3.27;;;;;;;14.15;72.17;97760.22;5091069;28;20206;-76
2023/06/13 00:43:00;;;;;;;4.43;3.83;;;;;;;14.11;72.55;97766.81;5091709;28;20213;-76
2023/06/13 00:45:28;;;;;;;4.17;3.70;;;;;;;14.12;73.09;97763.16;5091977;28;20231;-76
2023/06/13 00:47:58;;;;;;;4.13;3.20;;;;;;;14.06;73.19;97763.69;5091744;28;20199;-76
2023/06/13 00:50:27;;;;;;;4.43;3.87;;;;;;;14.08;73.38;97762.59;5091126;28;20206;-76
2023/06/13 00:52:55;;;;;;;4.63;3.83;;;;;;;14.03;73.70;97761.31;5091609;28;20211;-77
2023/06/13 00:55:25;;;;;;;4.17;3.70;;;;;;;13.98;74.15;97764.38;5091555;28;20230;-77
2023/06/13 00:57:53;;;;;;;4.00;3.60;;;;;;;13.98;73.85;97759.06;5091655;28;20257;-77
2023/06/13 01:00:22;;;;;;;4.83;4.00;;;;;;;14.00;73.68;97766.91;5088854;28;20261;-77
2023/06/13 01:02:49;;;;;;;5.17;3.67;;;;;;;13.96;73.65;97762.81;5088718;28;20206;-77
2023/06/13 01:05:16;;;;;;;4.33;3.93;;;;;;;13.93;73.64;97761.28;5088502;28;20206;-77
2023/06/13 01:07:42;;;;;;;4.07;3.53;;;;;;;13.94;73.42;97756.81;5088557;28;20199;-78
2023/06/13 01:10:11;;;;;;;4.93;4.07;;;;;;;13.92;73.22;97756.09;5090468;28;20210;-78
2023/06/13 01:12:45;;;;;;;3.97;3.57;;;;;;;13.88;73.74;97757.38;5091515;28;20206;-75
2023/06/13 01:15:17;;;;;;;4.90;4.00;;;;;;;13.87;74.02;97755.69;5091460;28;20213;-76
2023/06/13 01:17:57;;;;;;;4.13;3.50;;;;;;;13.83;74.95;97760.44;5091291;28;20237;-76
2023/06/13 01:20:26;;;;;;;5.07;3.63;;;;;;;13.77;74.93;97753.00;5090637;28;20206;-78
2023/06/13 01:22:57;;;;;;;5.07;3.90;;;;;;;13.73;74.69;97754.22;5091230;28;20250;-76
2023/06/13 01:25:37;;;;;;;4.80;3.67;;;;;;;13.69;75.09;97752.00;5091432;28;20283;-78
2023/06/13 01:28:07;;;;;;;3.80;3.40;;;;;;;13.68;74.71;97750.31;5091310;28;20293;-78
2023/06/13 01:30:35;;;;;;;4.33;3.60;;;;;;;13.58;75.17;97744.13;5090153;28;20202;-78
2023/06/13 01:33:03;;;;;;;4.30;3.90;;;;;;;13.53;75.89;97748.97;5091067;28;20215;-76
2023/06/13 01:35:31;;;;;;;3.67;3.37;;;;;;;13.53;76.73;97751.63;5091228;28;20584;-79
2023/06/13 01:37:57;;;;;;;4.33;3.77;;;;;;;13.45;76.79;97748.81;5091148;28;20234;-76
2023/06/13 01:40:24;;;;;;;4.33;3.63;;;;;;;13.41;76.92;97748.25;5090923;28;20207;-76
2023/06/13 01:42:50;;;;;;;4.23;3.80;;;;;;;13.40;76.15;97740.41;5091253;28;20511;-76
2023/06/13 01:45:19;;;;;;;4.87;3.67;;;;;;;13.38;76.05;97742.34;5091027;28;20213;-76
2023/06/13 01:47:51;;;;;;;4.77;3.60;;;;;;;13.33;76.73;97744.56;5090972;28;20213;-76
2023/06/13 01:50:28;;;;;;;4.37;3.67;;;;;;;13.26;76.70;97749.53;5090315;28;20206;-77
2023/06/13 01:53:02;;;;;;;4.80;3.93;;;;;;;13.22;77.08;97748.16;5091147;28;20210;-76
2023/06/13 01:55:32;;;;;;;4.90;3.93;;;;;;;13.18;77.35;97751.16;5090996;28;20237;-77
2023/06/13 01:58:04;;;;;;;4.00;3.60;;;;;;;13.14;77.61;97733.84;5090870;28;20226;-77
2023/06/13 02:00:33;;;;;;;4.33;3.60;;;;;;;13.11;77.66;97731.44;5093466;28;20210;-77
2023/06/13 02:03:02;;;;;;;4.67;4.00;;;;;;;13.12;77.21;97725.16;5094856;28;20684;-77
2023/06/13 02:05:28;;;;;;;6.17;4.07;;;;;;;13.08;75.52;97724.59;5094950;28;20222;-78
2023/06/13 02:07:56;;;;;;;5.50;3.97;;;;;;;13.03;75.52;97729.44;5094862;28;20274;-77
2023/06/13 02:10:23;;;;;;;4.90;3.47;;;;;;;12.90;76.77;97730.59;5094011;28;20568;-77
2023/06/13 02:12:49;;;;;;;4.20;3.80;;;;;;;12.82;77.29;97733.03;5094688;28;20206;-77
2023/06/13 02:15:16;;;;;;;4.80;4.30;;;;;;;12.72;79.14;97740.94;5094671;28;20214;-77
2023/06/13 02:17:44;;;;;;;4.50;3.70;;;;;;;12.66;79.88;97733.47;5094573;28;20227;-77
2023/06/13 02:20:12;;;;;;;4.80;3.73;;;;;;;12.62;79.79;97739.19;5093754;28;20661;-77
2023/06/13 02:22:38;;;;;;;4.60;3.60;;;;;;;12.56;79.75;97737.03;5094516;28;20210;-76
2023/06/13 02:25:06;;;;;;;4.00;3.60;;;;;;;12.48;80.90;97744.78;5094271;28;20228;-77
2023/06/13 02:27:32;;;;;;;4.17;3.77;;;;;;;12.44;82.13;97748.66;5094594;28;20206;-76
2023/06/13 02:30:00;;;;;;;5.27;3.93;;;;;;;12.43;82.10;97741.69;5093526;28;20692;-76
2023/06/13 02:32:29;;;;;;;4.20;3.77;;;;;;;12.40;82.49;97747.25;5094223;28;20210;-76
2023/06/13 02:34:57;;;;;;;4.33;3.60;;;;;;;12.43;82.18;97744.31;5094404;28;20238;-77
2023/06/13 02:37:23;;;;;;;4.23;3.83;;;;;;;12.38;82.48;97743.84;5093013;22;20724;-80
2023/06/13 02:39:50;;;;;;;4.83;3.90;;;;;;;12.34;82.20;97747.75;5073927;28;20685;-81
2023/06/13 02:42:16;;;;;;;4.40;3.70;;;;;;;12.33;81.50;97746.91;5074567;28;20583;-80
2023/06/13 02:44:44;;;;;;;4.53;3.83;;;;;;;12.29;82.42;97752.59;5074461;28;20215;-80
2023/06/13 02:47:10;;;;;;;5.80;3.87;;;;;;;12.23;83.13;97751.25;5074355;28;20246;-80
2023/06/13 02:49:37;;;;;;;6.63;4.13;;;;;;;12.28;83.00;97748.25;5073478;28;20219;-80
2023/06/13 02:52:05;;;;;;;5.00;3.90;;;;;;;12.30;83.29;97751.59;5074455;28;20218;-80
2023/06/13 02:54:32;;;;;;;4.30;3.60;;;;;;;12.18;83.27;97757.91;5074147;28;20218;-80
2023/06/13 02:56:58;;;;;;;4.13;3.53;;;;;;;12.11;83.83;97757.56;5073832;28;20243;-81
2023/06/13 02:59:26;;;;;;;4.57;3.60;;;;;;;12.08;84.13;97751.66;5073345;28;20248;-79
2023/06/13 03:01:52;;;;;;;5.47;3.80;;;;;;;11.98;84.39;97751.56;5074023;28;20231;-81
2023/06/13 03:04:19;;;;;;;5.00;4.23;;;;;;;11.99;84.74;97744.47;5073727;28;20211;-79
2023/06/13 03:06:46;;;;;;;4.20;3.57;;;;;;;11.97;85.09;97752.53;5073382;28;20227;-79
2023/06/13 03:09:14;;;;;;;3.87;3.43;;;;;;;11.96;85.52;97752.66;5073344;28;20633;-81
2023/06/13 03:11:40;;;;;;;4.60;4.03;;;;;;;11.93;85.67;97753.75;5072664;28;20210;-81
2023/06/13 03:14:07;;;;;;;4.37;3.97;;;;;;;11.86;86.17;97757.03;5073803;28;20218;-81
2023/06/13 03:16:35;;;;;;;4.13;3.63;;;;;;;11.79;86.71;97761.97;5073800;28;20284;-81
2023/06/13 03:19:02;;;;;;;5.50;3.90;;;;;;;11.74;86.93;97755.34;5073133;28;20235;-79
2023/06/13 03:21:30;;;;;;;4.60;3.87;;;;;;;11.74;87.00;97768.59;5072925;28;20604;-78
2023/06/13 03:23:56;;;;;;;3.90;3.50;;;;;;;11.78;86.69;97770.00;5073539;28;20271;-77
2023/06/13 03:26:25;;;;;;;4.73;3.93;;;;;;;11.76;86.49;97769.31;5073533;28;20236;-80
2023/06/13 03:28:51;;;;;;;5.60;4.03;;;;;;;11.68;87.78;97772.56;5073132;28;20207;-81
2023/06/13 03:31:18;;;;;;;6.33;4.07;;;;;;;11.69;88.12;97773.41;5072189;28;20207;-80
2023/06/13 03:33:44;;;;;;;5.77;3.80;;;;;;;11.73;88.92;97772.22;5072874;28;20656;-80
2023/06/13 03:36:11;;;;;;;4.23;3.77;;;;;;;11.78;88.76;97783.25;5072774;28;20242;-80
2023/06/13 03:38:38;;;;;;;5.60;3.80;;;;;;;11.84;87.85;97780.13;5073011;28;20721;-81
2023/06/13 03:41:04;;;;;;;4.13;3.73;;;;;;;11.88;86.64;97773.63;5072649;28;20241;-81
2023/06/13 03:43:32;;;;;;;5.43;3.80;;;;;;;11.91;85.91;97781.31;5073122;28;20613;-80
2023/06/13 03:46:00;;;;;;;4.77;3.53;;;;;;;11.90;86.02;97783.13;5073367;28;20318;-80
2023/06/13 03:48:26;;;;;;;4.93;3.40;;;;;;;11.90;86.33;97779.63;5072954;28;20265;-81
2023/06/13 03:50:53;;;;;;;4.17;3.70;;;;;;;11.87;86.29;97790.47;5072619;28;20207;-80
2023/06/13 03:53:19;;;;;;;4.87;3.83;;;;;;;11.86;86.02;97794.09;5072788;28;20214;-80
2023/06/13 03:55:46;;;;;;;4.20;3.80;;;;;;;11.88;85.43;97797.47;5072371;28;20231;-80
2023/06/13 03:58:14;;;;;;;3.97;3.30;;;;;;;11.80;85.77;97797.22;5072727;28;20230;-81
2023/06/13 04:00:44;;;;;;;5.00;3.70;;;;;;;11.76;86.31;97804.56;5071881;28;20203;-80
2023/06/13 04:03:10;;;;;;;4.97;3.47;;;;;;;11.81;87.56;97806.84;5072535;28;20624;-80
2023/06/13 04:05:37;;;;;;;4.97;3.70;;;;;;;11.88;88.71;97808.03;5072450;28;20214;-80
2023/06/13 04:08:06;;;;;;;4.10;3.70;;;;;;;11.85;89.47;97814.44;5072147;28;20202;-80
2023/06/13 04:10:33;;;;;;;3.73;3.43;;;;;;;11.81;89.19;97809.50;5071742;28;20294;-80
2023/06/13 04:12:59;;;;;;;4.53;3.40;;;;;;;11.80;89.71;97805.19;5072267;28;20215;-80
2023/06/13 04:15:26;;;;;;;5.10;3.83;;;;;;;11.82;89.92;97813.81;5072034;28;20225;-80
2023/06/13 04:17:54;;;;;;;5.33;3.53;;;;;;;11.92;90.04;97820.09;5072058;28;20230;-80
2023/06/13 04:20:23;;;;;;;3.67;3.30;;;;;;;11.98;90.64;97824.91;5071657;28;20284;-80
2023/06/13 04:22:51;;;;;;;3.97;3.57;;;;;;;12.04;91.08;97813.81;5071656;28;20307;-80
2023/06/13 04:25:18;;;;;;;4.10;3.60;;;;;;;12.11;91.45;97812.34;5072004;28;20646;-80
2023/06/13 04:27:44;;;;;;;4.00;3.60;;;;;;;12.22;91.43;97807.03;5071768;28;20231;-80
2023/06/13 04:30:12;;;;;;;4.33;3.43;;;;;;;12.27;91.25;97807.50;5071203;28;20218;-80
2023/06/13 04:32:39;;;;;;;3.70;3.30;;;;;;;12.35;91.85;97813.03;5071313;28;20211;-80
2023/06/13 04:35:07;;;;;;;4.63;3.80;;;;;;;12.45;91.74;97813.94;5071842;28;20211;-80
2023/06/13 04:37:34;;;;;;;5.67;3.83;;;;;;;12.57;91.67;97812.94;5071298;28;20241;-80
2023/06/13 04:40:05;;;;;;;4.40;4.00;;;;;;;12.68;91.15;97813.75;5071049;28;20295;-81
2023/06/13 04:42:32;;;;;;;3.70;3.40;;;;;;;12.77;91.12;97815.63;5071657;28;20272;-80
2023/06/13 04:44:59;;;;;;;4.53;3.53;;;;;;;12.86;92.01;97827.28;5071551;28;20203;-81
2023/06/13 04:47:27;;;;;;;6.57;3.80;;;;;;;12.92;90.79;97811.72;5072069;28;20455;-80
2023/06/13 04:49:57;;;;;;;4.17;3.70;;;;;;;13.08;91.64;97819.28;5070964;28;20566;-81
2023/06/13 04:52:26;;;;;;;5.27;3.60;;;;;;;13.18;91.27;97820.16;5071642;28;20727;-81
2023/06/13 04:54:54;;;;;;;3.83;3.43;;;;;;;13.28;89.30;97815.78;5071624;28;20203;-80
2023/06/13 04:57:20;;;;;;;8.40;4.17;;;;;;;13.47;87.59;97811.44;5071272;28;20317;-80
2023/06/13 04:59:47;;;;;;;4.17;3.60;;;;;;;13.85;84.62;97808.09;5070995;28;20203;-80
2023/06/13 05:02:15;;;;;;;4.97;3.57;;;;;;;14.32;81.21;97794.13;5071726;28;20238;-80
2023/06/13 05:04:42;;;;;;;6.37;3.70;;;;;;;15.05;78.58;97794.47;5071752;28;20227;-80
2023/06/13 05:07:08;;;;;;;5.07;3.23;;;;;;;15.83;75.74;97792.34;5071404;28;20227;-80
2023/06/13 05:09:37;;;;;;;5.60;3.30;;;;;;;16.69;71.70;97778.38;5070959;28;20298;-81
2023/06/13 05:12:04;;;;;;;6.23;3.33;;;;;;;17.38;66.30;97765.94;5071809;28;20766;-81
2023/06/13 05:14:31;;;;;;;5.07;3.63;;;;;;;18.05;63.22;97755.28;5071479;28;20690;-82
2023/06/13 05:17:01;;;;;;;4.83;3.20;;;;;;;18.65;60.35;97742.63;5071591;28;20705;-81
2023/06/13 05:19:27;;;;;;;5.03;3.70;;;;;;;19.23;59.09;97754.03;5070764;28;20242;-82
2023/06/13 05:21:54;;;;;;;5.47;3.60;;;;;;;19.56;57.84;97744.94;5071464;28;20235;-83
2023/06/13 05:24:20;;;;;;;4.50;3.30;;;;;;;19.98;56.02;97730.22;5071305;28;20219;-83
2023/06/13 05:26:48;;;;;;;3.47;3.07;;;;;;;20.33;54.84;97727.06;5071467;28;20606;-83
2023/06/13 05:29:15;;;;;;;4.20;3.10;;;;;;;20.63;53.21;97720.84;5070796;28;20214;-81
2023/06/13 05:31:41;;;;;;;4.07;3.10;;;;;;;20.88;52.80;97717.00;5071682;28;20204;-82
2023/06/13 05:34:08;;;;;;;4.53;3.17;;;;;;;21.18;52.98;97726.81;5072378;28;20219;-81
2023/06/13 05:36:34;;;;;;;3.40;3.10;;;;;;;21.52;51.89;97721.75;5075298;28;20255;-81
2023/06/13 05:39:01;;;;;;;4.93;3.60;;;;;;;21.72;49.94;97693.34;5075529;28;20227;-81
2023/06/13 05:41:28;;;;;;;5.30;3.70;;;;;;;21.95;50.23;97706.69;5075441;28;20260;-81
2023/06/13 05:43:55;;;;;;;5.10;3.37;;;;;;;22.10;49.13;97696.75;5075919;28;20207;-81
2023/06/13 05:46:22;;;;;;;4.53;3.10;;;;;;;22.35;47.80;97693.53;5075915;28;20227;-81
2023/06/13 05:48:48;;;;;;;3.43;3.13;;;;;;;22.47;47.42;97692.06;5075958;28;20204;-82
2023/06/13 05:51:15;;;;;;;5.97;3.10;;;;;;;22.60;47.12;97699.41;5075229;28;20585;-82
2023/06/13 05:53:41;;;;;;;5.83;3.13;;;;;;;22.73;47.34;97700.41;5075475;28;20211;-82
2023/06/13 05:56:08;;;;;;;4.70;3.40;;;;;;;22.86;45.81;97688.94;5075437;28;20234;-81
2023/06/13 05:58:34;;;;;;;4.67;3.23;;;;;;;22.94;44.90;97686.94;5075571;28;20227;-82
2023/06/13 06:01:03;;;;;;;3.40;3.10;;;;;;;22.99;42.51;97656.69;5075559;28;20525;-80
2023/06/13 06:03:30;;;;;;;4.20;3.17;;;;;;;23.16;43.42;97683.19;5075995;28;20214;-82
2023/06/13 06:05:56;;;;;;;4.67;3.20;;;;;;;23.05;42.53;97670.22;5075806;28;20281;-82
2023/06/13 06:08:23;;;;;;;3.63;2.73;;;;;;;23.10;44.36;97688.53;5075275;28;20211;-82
2023/06/13 06:10:50;;;;;;;4.23;3.10;;;;;;;23.05;41.76;97651.34;5074385;28;20215;-82
2023/06/13 06:13:16;;;;;;;7.10;3.13;;;;;;;22.97;39.88;97638.03;5075332;28;20219;-82
2023/06/13 06:15:42;;;;;;;3.50;2.80;;;;;;;22.78;39.25;97617.13;5075026;28;20214;-81
2023/06/13 06:18:10;;;;;;;3.50;2.60;;;;;;;22.74;42.08;97653.56;5075081;28;20227;-77
2023/06/13 06:20:37;;;;;;;3.47;3.00;;;;;;;22.78;39.26;97621.69;5074226;28;20239;-82
2023/06/13 06:23:03;;;;;;;4.50;3.00;;;;;;;22.83;40.61;97641.63;5075262;28;20211;-83
2023/06/13 06:25:30;;;;;;;3.17;2.87;;;;;;;22.96;39.42;97625.56;5075431;28;20579;-89
2023/06/13 06:27:56;;;;;;;3.43;2.93;;;;;;;23.16;40.17;97637.38;5075488;28;20211;-86
2023/06/13 06:30:23;;;;;;;4.13;2.67;;;;;;;23.37;39.69;97634.63;5074654;28;20234;-89
2023/06/13 06:32:50;;;;;;;3.60;2.90;;;;;;;23.24;39.00;97623.75;5075543;28;20211;-86
2023/06/13 06:35:18;;;;;;;6.60;2.87;;;;;;;23.48;39.51;97633.25;5075502;28;20215;-89
2023/06/13 06:37:44;;;;;;;3.57;2.63;;;;;;;23.54;37.43;97610.88;5075095;28;20239;-83
2023/06/13 06:40:11;;;;;;;3.60;2.63;;;;;;;23.33;36.47;97595.59;5074781;28;20700;-83
2023/06/13 06:42:37;;;;;;;3.43;2.57;;;;;;;23.21;36.96;97640.31;5075903;28;20237;-82
2023/06/13 06:45:05;;;;;;;4.53;2.63;;;;;;;23.17;37.42;97639.03;5075390;28;20322;-84
2023/06/13 06:47:31;;;;;;;3.03;2.50;;;;;;;23.14;36.71;97642.09;5074701;28;20234;-82
2023/06/13 06:49:58;;;;;;;4.57;2.70;;;;;;;23.15;37.60;97654.53;5074157;28;20203;-84
2023/06/13 06:52:27;;;;;;;4.70;3.03;;;;;;;23.26;37.84;97648.66;5074996;28;20208;-85
2023/06/13 06:54:53;;;;;;;3.90;3.00;;;;;;;23.00;37.79;97647.56;5074920;28;20204;-86
2023/06/13 06:57:20;;;;;;;3.50;2.93;;;;;;;23.13;37.36;97653.06;5074468;28;20689;-85
2023/06/13 06:59:46;;;;;;;4.27;2.83;;;;;;;23.22;37.08;97651.94;5073893;28;20239;-89
2023/06/13 07:02:13;;;;;;;3.57;2.30;;;;;;;23.09;37.33;97657.19;5074606;28;20207;-84
2023/06/13 07:04:39;;;;;;;3.47;2.70;;;;;;;23.05;37.37;97658.63;5074387;28;20295;-87
2023/06/13 07:07:06;;;;;;;4.37;3.03;;;;;;;22.90;37.98;97658.69;5074647;28;20228;-85
2023/06/13 07:09:34;;;;;;;4.00;2.70;;;;;;;22.58;38.95;97670.00;5074976;28;20199;-86
2023/06/13 07:12:00;;;;;;;4.97;2.40;;;;;;;22.23;38.70;97656.50;5077895;28;20221;-86
2023/06/13 07:14:27;;;;;;;4.77;3.10;;;;;;;21.69;39.79;97653.38;5077344;28;20211;-91
2023/06/13 07:16:54;;;;;;;3.37;3.00;;;;;;;21.23;41.20;97669.81;5074128;28;20336;-92
2023/06/13 07:19:20;;;;;;;4.03;3.03;;;;;;;20.90;41.96;97663.91;5073642;28;20570;-75
2023/06/13 07:21:47;;;;;;;5.47;3.00;;;;;;;20.67;42.34;97660.38;5074047;28;20208;-77
2023/06/13 07:24:13;;;;;;;3.40;2.73;;;;;;;20.64;42.06;97674.19;5073163;28;20203;-74
2023/06/13 07:26:41;;;;;;;4.23;2.87;;;;;;;20.51;42.52;97673.94;5073289;28;20246;-75
2023/06/13 07:29:08;;;;;;;3.00;2.80;;;;;;;20.57;41.37;97662.50;5072573;28;20203;-75
2023/06/13 07:31:34;;;;;;;3.00;2.70;;;;;;;20.55;41.15;97664.50;5073042;28;20221;-74
2023/06/13 07:34:01;;;;;;;3.47;3.03;;;;;;;20.52;40.96;97659.50;5072467;28;20438;-75
2023/06/13 07:36:28;;;;;;;3.20;2.93;;;;;;;20.48;42.24;97671.59;5073003;28;20235;-75
2023/06/13 07:38:54;;;;;;;2.93;2.63;;;;;;;20.57;41.69;97667.84;5072582;28;20281;-76
2023/06/13 07:41:21;;;;;;;3.67;3.10;;;;;;;20.58;42.07;97671.34;5070723;28;20238;-77
2023/06/13 07:43:49;;;;;;;4.53;3.00;;;;;;;20.68;40.53;97648.66;5071242;28;20265;-76
2023/06/13 07:46:16;;;;;;;3.23;2.70;;;;;;;20.63;42.02;97666.28;5071829;28;20231;-76
2023/06/13 07:48:42;;;;;;;4.20;2.90;;;;;;;20.72;41.96;97671.41;5071948;28;20199;-76
2023/06/13 07:51:09;;;;;;;4.60;3.10;;;;;;;20.74;42.06;97664.03;5070248;28;20251;-77
2023/06/13 07:53:35;;;;;;;7.23;2.93;;;;;;;20.83;42.18;97667.47;5072125;28;20576;-77
2023/06/13 07:56:04;;;;;;;4.00;2.83;;;;;;;20.95;42.52;97671.41;5072088;28;20231;-76
2023/06/13 07:58:30;;;;;;;5.53;3.10;;;;;;;20.96;41.15;97647.06;5070430;28;20227;-76
2023/06/13 08:00:58;;;;;;;3.93;2.90;;;;;;;21.02;40.86;97649.03;5070897;28;20688;-76
2023/06/13 08:03:25;;;;;;;3.30;2.90;;;;;;;21.05;41.39;97651.38;5071314;28;20211;-76
2023/06/13 08:05:52;;;;;;;4.40;3.30;;;;;;;21.14;41.68;97647.56;5072540;28;20611;-75
2023/06/13 08:08:18;;;;;;;3.67;2.90;;;;;;;21.26;40.45;97629.97;5072686;28;20211;-76
2023/06/13 08:10:45;;;;;;;3.70;3.00;;;;;;;21.27;40.18;97625.44;5071407;28;20211;-76
2023/06/13 08:13:11;;;;;;;3.30;2.70;;;;;;;21.29;39.42;97618.88;5072081;28;20203;-76
2023/06/13 08:15:38;;;;;;;3.40;2.80;;;;;;;21.37;41.78;97656.41;5072195;28;20207;-76
2023/06/13 08:18:06;;;;;;;3.40;3.10;;;;;;;21.43;39.57;97625.25;5072580;28;20203;-76
2023/06/13 08:20:32;;;;;;;3.67;3.03;;;;;;;21.37;39.22;97626.81;5071506;28;20231;-76
2023/06/13 08:22:59;;;;;;;7.17;3.03;;;;;;;21.38;40.19;97636.56;5071945;28;20210;-75
2023/06/13 08:25:26;;;;;;;5.03;3.17;;;;;;;21.45;40.12;97629.41;5071649;28;20207;-76
2023/06/13 08:27:52;;;;;;;4.50;3.10;;;;;;;21.54;39.36;97636.38;5072205;28;20226;-77
2023/06/13 08:30:20;;;;;;;3.60;2.90;;;;;;;21.55;39.63;97634.50;5071703;28;20235;-77
2023/06/13 08:32:47;;;;;;;4.00;3.20;;;;;;;21.67;39.45;97630.34;5072332;28;20221;-77
2023/06/13 08:35:15;;;;;;;5.13;2.87;;;;;;;21.64;40.18;97644.16;5071874;28;20257;-77
2023/06/13 08:37:42;;;;;;;4.80;3.17;;;;;;;21.65;40.54;97643.97;5085864;22;20238;-75
2023/06/13 08:40:10;;;;;;;3.73;3.10;;;;;;;21.65;40.30;97638.56;5070571;28;20597;-75
2023/06/13 08:42:37;;;;;;;4.93;3.00;;;;;;;21.80;41.39;97652.91;5071795;28;20211;-75
2023/06/13 08:45:04;;;;;;;4.93;3.00;;;;;;;21.95;40.30;97640.25;5071769;28;20211;-74
2023/06/13 08:47:31;;;;;;;3.30;3.00;;;;;;;22.05;40.66;97651.56;5071585;28;20338;-75
2023/06/13 08:50:00;;;;;;;4.63;3.33;;;;;;;22.05;39.91;97639.94;5070821;28;20593;-75
2023/06/13 08:52:30;;;;;;;3.20;2.90;;;;;;;22.09;39.86;97639.41;5071397;28;20688;-77
2023/06/13 08:54:59;;;;;;;4.30;3.27;;;;;;;22.22;38.88;97620.69;5071475;28;20580;-76
2023/06/13 08:57:28;;;;;;;5.07;3.00;;;;;;;22.15;40.05;97635.94;5071178;28;20227;-75
2023/06/13 08:59:56;;;;;;;3.30;3.00;;;;;;;22.23;40.70;97645.75;5070773;28;20230;-75
2023/06/13 09:02:24;;;;;;;3.83;3.10;;;;;;;22.27;40.55;97650.59;5071333;28;20207;-75
2023/06/13 09:04:51;;;;;;;4.50;3.03;;;;;;;22.25;40.48;97641.03;5071368;28;20264;-75
2023/06/13 09:07:18;;;;;;;4.63;3.10;;;;;;;22.41;39.57;97630.00;5071124;28;20223;-74
2023/06/13 09:09:47;;;;;;;5.13;3.17;;;;;;;22.46;40.76;97646.44;5070701;28;20204;-76
2023/06/13 09:12:14;;;;;;;3.33;3.03;;;;;;;22.49;39.27;97624.53;5071395;28;20555;-77
2023/06/13 09:14:41;;;;;;;4.30;3.23;;;;;;;22.55;39.65;97632.66;5071106;28;20207;-76
2023/06/13 09:17:08;;;;;;;4.67;3.40;;;;;;;22.56;39.29;97630.81;5071190;28;20248;-76
2023/06/13 09:19:34;;;;;;;3.33;3.00;;;;;;;22.53;40.48;97637.41;5068815;28;20227;-76
2023/06/13 09:22:01;;;;;;;6.30;3.10;;;;;;;22.59;40.95;97647.44;5068524;28;20215;-76
2023/06/13 09:24:28;;;;;;;3.47;3.17;;;;;;;22.75;41.79;97652.53;5068423;28;20211;-76
2023/06/13 09:26:58;;;;;;;3.63;3.00;;;;;;;22.82;40.07;97628.34;5067794;28;20231;-76
2023/06/13 09:29:31;;;;;;;4.70;3.10;;;;;;;22.86;39.69;97625.06;5069620;28;20203;-76
2023/06/13 09:31:58;;;;;;;4.77;3.27;;;;;;;22.95;37.78;97606.91;5070654;28;20211;-76
2023/06/13 09:34:27;;;;;;;3.50;3.20;;;;;;;22.88;39.32;97617.66;5067281;28;20216;-76
2023/06/13 09:36:56;;;;;;;4.40;3.30;;;;;;;22.94;39.53;97632.19;5068012;28;20281;-75
2023/06/13 09:39:22;;;;;;;3.40;3.10;;;;;;;22.94;38.53;97622.25;5067216;28;20318;-75
2023/06/13 09:41:53;;;;;;;6.67;3.73;;;;;;;22.98;37.73;97601.13;5069343;28;20215;-75
2023/06/13 09:44:22;;;;;;;4.73;3.20;;;;;;;23.09;37.67;97598.72;5070850;28;20584;-75
2023/06/13 09:46:53;;;;;;;5.43;3.17;;;;;;;23.09;37.55;97598.72;5069550;28;20674;-76
2023/06/13 09:49:19;;;;;;;3.33;2.70;;;;;;;23.06;38.73;97609.06;5067299;28;20213;-75
2023/06/13 09:51:46;;;;;;;5.30;3.13;;;;;;;23.14;37.84;97593.56;5068146;28;20583;-76
2023/06/13 09:54:13;;;;;;;4.47;2.97;;;;;;;23.21;36.61;97578.28;5067984;28;20242;-75
2023/06/13 09:56:42;;;;;;;3.90;3.27;;;;;;;23.21;37.38;97590.94;5070696;28;20253;-77
2023/06/13 09:59:08;;;;;;;4.27;3.00;;;;;;;23.33;37.36;97589.34;5069911;28;20227;-75
2023/06/13 10:01:38;;;;;;;3.93;2.83;;;;;;;23.35;36.30;97566.56;5068295;28;20215;-75
2023/06/13 10:04:05;;;;;;;3.77;3.10;;;;;;;23.45;36.12;97572.41;5067877;28;20302;-75
2023/06/13 10:06:32;;;;;;;3.17;2.87;;;;;;;23.49;36.04;97565.59;5067442;28;20231;-75
2023/06/13 10:08:59;;;;;;;3.03;2.83;;;;;;;23.57;36.46;97569.97;5068958;28;20207;-76
2023/06/13 10:11:30;;;;;;;4.23;2.80;;;;;;;23.61;35.92;97561.31;5070193;28;20218;-76
2023/06/13 10:14:02;;;;;;;3.20;2.90;;;;;;;23.71;34.69;97550.13;5070491;28;20220;-76
2023/06/13 10:16:31;;;;;;;3.43;3.10;;;;;;;23.67;35.01;97538.91;5071117;28;20318;-76
2023/06/13 10:19:01;;;;;;;3.30;3.00;;;;;;;23.77;36.67;97566.34;5070577;28;20215;-76
2023/06/13 10:21:28;;;;;;;5.07;3.20;;;;;;;23.86;35.99;97559.75;5072614;28;20211;-76
2023/06/13 10:23:55;;;;;;;4.07;3.10;;;;;;;23.86;35.96;97548.94;5074266;28;20218;-76
2023/06/13 10:26:31;;;;;;;4.63;3.00;;;;;;;23.90;37.15;97566.41;5073997;28;20232;-75
2023/06/13 10:29:25;;;;;;;5.30;2.90;;;;;;;24.03;37.14;97576.44;5074176;28;20203;-76
2023/06/13 10:32:02;;;;;;;3.83;3.20;;;;;;;24.00;34.95;97537.19;5074388;28;20273;-76
2023/06/13 10:34:50;;;;;;;3.30;3.00;;;;;;;24.03;34.92;97539.44;5074183;28;20682;-76
2023/06/13 10:37:48;;;;;;;3.83;3.17;;;;;;;24.05;35.71;97542.81;5073859;28;20783;-76
2023/06/13 10:40:38;;;;;;;4.77;3.00;;;;;;;24.07;34.71;97538.03;5073093;28;20685;-76
2023/06/13 10:43:09;;;;;;;3.63;3.33;;;;;;;24.16;34.69;97542.22;5035175;28;20673;-76
2023/06/13 10:45:36;;;;;;;3.97;2.87;;;;;;;24.13;34.77;97550.69;5074116;28;20482;-76
2023/06/13 10:48:05;;;;;;;5.50;3.30;;;;;;;24.19;35.66;97555.28;5073699;28;20234;-76
2023/06/13 10:50:39;;;;;;;3.87;2.93;;;;;;;24.20;35.12;97554.25;5072865;28;20208;-77
2023/06/13 10:53:05;;;;;;;3.40;2.93;;;;;;;24.31;34.40;97544.72;5073792;28;20211;-75
2023/06/13 10:55:32;;;;;;;5.37;3.10;;;;;;;24.28;35.17;97543.25;5073521;28;20211;-76
2023/06/13 10:57:59;;;;;;;3.63;3.13;;;;;;;24.26;33.88;97510.22;5073605;28;20262;-76
2023/06/13 11:00:31;;;;;;;5.00;3.27;;;;;;;24.22;33.89;97516.25;5072532;28;20258;-75
2023/06/13 11:02:58;;;;;;;5.17;3.27;;;;;;;24.36;35.76;97534.13;5073240;28;20214;-75
2023/06/13 11:05:26;;;;;;;3.13;2.83;;;;;;;24.48;35.83;97533.31;5067788;28;20584;-75
2023/06/13 11:07:55;;;;;;;3.30;3.00;;;;;;;24.54;34.93;97537.88;5070665;28;20227;-74
2023/06/13 11:10:23;;;;;;;3.13;2.80;;;;;;;24.59;35.08;97540.84;5069861;28;20207;-74
2023/06/13 11:12:53;;;;;;;5.10;3.27;;;;;;;24.70;36.47;97559.09;5071856;28;20215;-74
2023/06/13 11:15:21;;;;;;;3.10;2.80;;;;;;;24.72;36.04;97551.63;5073358;28;20219;-76
2023/06/13 11:18:16;;;;;;;3.13;2.83;;;;;;;24.77;34.13;97519.41;5072868;28;20231;-75
2023/06/13 11:20:48;;;;;;;4.90;3.17;;;;;;;24.90;35.26;97537.47;5071199;28;20454;-75
2023/06/13 11:23:16;;;;;;;3.40;3.10;;;;;;;24.92;34.58;97530.81;5073080;28;20453;-75
2023/06/13 11:25:44;;;;;;;3.70;3.30;;;;;;;25.01;36.57;97551.22;5073266;28;20207;-76
2023/06/13 11:28:10;;;;;;;5.27;3.17;;;;;;;24.98;35.08;97523.72;5068933;28;20223;-75
2023/06/13 11:30:36;;;;;;;3.40;3.10;;;;;;;25.09;35.29;97537.44;5070217;28;20203;-75
2023/06/13 11:33:04;;;;;;;3.70;3.10;;;;;;;25.22;36.44;97542.00;5070282;28;20212;-75
2023/06/13 11:35:33;;;;;;;4.10;3.30;;;;;;;25.32;35.94;97545.13;5071270;28;20582;-75
2023/06/13 11:38:05;;;;;;;3.92;3.15;;;;;;;25.35;36.29;97542.81;5070140;28;20640;-75